Terminal Aerodrome Forecast
Issued by NWS Pittsburgh, PA

Current Version | Previous Version | Graphics & Text | Print | Product List | Glossary On
Versions: 1 2 3 4 5 6 7 8 9 10 11 12 13 14 15 16 17 18 19 20 21 22 23 24 25 26 27 28 29 30 31 32
000
FTUS41 KPBZ 211600 AAD
TAFPIT
TAF AMD
KPIT 211605Z 2116/2218 20010G15KT P6SM BKN025
     FM211700 22010G18KT P6SM SCT025 BKN040
     FM212000 27010G20KT P6SM SCT035 BKN050
      TEMPO 2121/2123 28015G25KT -TSRA BKN035CB
     FM220100 30010KT P6SM BKN050=

USA.gov is the U.S. government's official web portal to all federal, state and local government web resources and services.